createdAt,value
2022-08-31T00:01:05.958Z,96240.44
2022-08-31T00:06:09.317Z,96228.25
2022-08-31T00:11:14.445Z,96226.41
2022-08-31T00:16:17.610Z,96222.13
2022-08-31T00:21:23.237Z,96208.06
2022-08-31T00:26:27.700Z,96216.78
2022-08-31T00:31:30.576Z,96217.75
2022-08-31T00:36:33.492Z,96218.50
2022-08-31T00:41:39.373Z,96217.09
2022-08-31T00:46:44.587Z,96218.16
2022-08-31T00:51:52.827Z,96217.34
2022-08-31T00:56:58.057Z,96218.16
2022-08-31T01:02:00.984Z,96220.59
2022-08-31T01:07:07.363Z,96218.38
2022-08-31T01:12:13.197Z,96229.06
2022-08-31T01:17:17.684Z,96221.31
2022-08-31T01:22:27.832Z,96232.63
2022-08-31T01:27:36.365Z,96226.22
2022-08-31T01:32:39.756Z,96225.84
2022-08-31T01:37:42.548Z,96233.41
2022-08-31T01:42:47.418Z,96225.25
2022-08-31T01:47:50.177Z,96215.28
2022-08-31T01:52:53.082Z,96229.59
2022-08-31T01:57:58.066Z,96224.97
2022-08-31T02:03:03.181Z,96225.97
2022-08-31T02:08:08.363Z,96228.41
2022-08-31T02:13:13.013Z,96221.56
2022-08-31T02:18:15.570Z,96230.50
2022-08-31T02:23:21.430Z,96219.44
2022-08-31T02:28:26.013Z,96224.59
2022-08-31T02:33:28.825Z,96225.72
2022-08-31T02:38:35.157Z,96224.69
2022-08-31T02:43:39.469Z,96226.09
2022-08-31T02:48:42.209Z,96222.06
2022-08-31T02:53:45.500Z,96224.16
2022-08-31T02:58:54.678Z,96225.81
2022-08-31T03:03:58.518Z,96225.31
2022-08-31T03:09:01.307Z,96223.69
2022-08-31T03:14:05.575Z,96223.78
2022-08-31T03:19:09.079Z,96225.03
2022-08-31T03:24:11.855Z,96223.59
2022-08-31T03:29:16.012Z,96230.22
2022-08-31T03:34:18.763Z,96225.22
2022-08-31T03:39:21.531Z,96234.75
2022-08-31T03:44:25.653Z,96231.34
2022-08-31T03:49:28.370Z,96233.81
2022-08-31T03:54:31.510Z,96227.34
2022-08-31T03:59:35.676Z,96226.78
2022-08-31T04:04:38.455Z,96232.59
2022-08-31T04:09:41.208Z,96227.91
2022-08-31T04:14:45.442Z,96228.09
2022-08-31T04:19:48.174Z,96219.16
2022-08-31T04:24:51.001Z,96221.13
2022-08-31T04:29:55.133Z,96230.06
2022-08-31T04:34:58.071Z,96235.63
2022-08-31T04:40:01.466Z,96234.66
2022-08-31T04:45:07.250Z,96237.03
2022-08-31T04:50:11.330Z,96231.75
2022-08-31T04:55:14.580Z,96254.50
2022-08-31T05:00:19.030Z,96249.22
2022-08-31T05:05:21.944Z,96248.84
2022-08-31T05:10:24.772Z,96247.09
2022-08-31T05:15:28.949Z,96250.75
2022-08-31T05:20:31.714Z,96255.00
2022-08-31T05:25:34.708Z,96260.28
2022-08-31T05:30:38.915Z,96251.66
2022-08-31T05:35:41.701Z,96257.88
2022-08-31T05:40:44.543Z,96252.13
2022-08-31T05:45:48.704Z,96256.88
2022-08-31T05:50:51.792Z,96250.53
2022-08-31T05:56:00.356Z,96265.31
2022-08-31T06:01:05.109Z,96260.22
2022-08-31T06:06:09.664Z,96268.41
2022-08-31T06:11:17.629Z,96273.59
2022-08-31T06:16:22.267Z,96275.13
2022-08-31T06:21:26.203Z,96280.31
2022-08-31T06:26:30.779Z,96266.94
2022-08-31T06:31:37.967Z,96260.28
2022-08-31T06:36:41.046Z,96254.28
2022-08-31T06:41:45.343Z,96253.56
2022-08-31T06:46:49.686Z,96260.88
2022-08-31T06:51:52.636Z,96264.25
2022-08-31T06:56:55.461Z,96257.91
2022-08-31T07:02:00.937Z,96255.09
2022-08-31T07:07:05.736Z,96247.53
2022-08-31T07:12:08.713Z,96244.38
2022-08-31T07:17:12.913Z,96240.34
2022-08-31T07:22:15.725Z,96245.94
2022-08-31T07:27:18.636Z,96249.09
2022-08-31T07:32:22.926Z,96248.75
2022-08-31T07:37:42.924Z,96233.00
2022-08-31T07:42:46.841Z,96240.41
2022-08-31T07:47:51.709Z,96226.63
2022-08-31T07:52:55.597Z,96240.13
2022-08-31T07:57:59.041Z,96239.13
2022-08-31T08:03:07.375Z,96244.63
2022-08-31T08:08:13.851Z,96236.09
2022-08-31T08:13:19.608Z,96243.88
2022-08-31T08:18:23.839Z,96242.31
2022-08-31T08:23:28.539Z,96248.50
2022-08-31T08:28:40.844Z,96243.63
2022-08-31T08:33:46.493Z,96248.97
2022-08-31T08:38:51.793Z,96238.00
2022-08-31T08:43:57.294Z,96247.81
2022-08-31T08:49:10.493Z,96244.38
2022-08-31T08:54:15.839Z,96246.88
2022-08-31T08:59:20.237Z,96235.69
2022-08-31T09:04:41.213Z,96233.69
2022-08-31T09:09:49.733Z,96226.72
2022-08-31T09:15:36.483Z,96220.25
2022-08-31T09:20:41.337Z,96220.63
2022-08-31T09:25:52.427Z,96210.63
2022-08-31T09:30:56.092Z,96215.72
2022-08-31T09:41:35.641Z,96199.69
2022-08-31T09:46:39.322Z,96191.88
2022-08-31T09:51:42.087Z,96194.53
2022-08-31T09:56:58.392Z,96180.84
2022-08-31T10:02:02.555Z,96179.53
2022-08-31T10:07:30.786Z,96177.03
2022-08-31T10:12:39.747Z,96173.84
2022-08-31T10:17:49.019Z,96155.31
2022-08-31T10:22:57.737Z,96159.28
2022-08-31T10:28:08.419Z,96157.22
2022-08-31T10:33:15.740Z,96150.25
2022-08-31T10:38:26.142Z,96143.72
2022-08-31T10:43:34.597Z,96139.16
2022-08-31T10:48:41.106Z,96132.41
2022-08-31T10:53:53.629Z,96143.13
2022-08-31T10:59:14.118Z,96133.72
2022-08-31T11:04:39.902Z,96125.59
2022-08-31T11:09:50.033Z,96134.94
2022-08-31T11:15:29.449Z,96132.44
2022-08-31T11:20:52.091Z,96138.81
2022-08-31T11:26:45.189Z,96126.59
2022-08-31T11:31:51.012Z,96129.81
2022-08-31T11:36:55.629Z,96130.97
2022-08-31T11:41:59.166Z,96133.31
2022-08-31T11:47:08.290Z,96122.81
2022-08-31T11:52:38.687Z,96112.19
2022-08-31T11:58:33.641Z,96109.38
2022-08-31T12:03:53.776Z,96114.16
2022-08-31T12:09:18.201Z,96094.88
2022-08-31T12:14:33.186Z,96089.31
2022-08-31T12:20:01.742Z,96089.47
2022-08-31T12:25:14.216Z,96077.38
2022-08-31T12:30:20.718Z,96081.66
2022-08-31T12:35:26.209Z,96074.28
2022-08-31T12:40:30.562Z,96071.41
2022-08-31T12:46:08.769Z,96087.00
2022-08-31T12:51:21.748Z,96070.88
2022-08-31T12:56:31.753Z,96062.97
2022-08-31T13:01:42.582Z,96063.84
2022-08-31T13:06:48.348Z,96050.88
2022-08-31T13:11:53.810Z,96056.38
2022-08-31T13:17:04.318Z,96040.03
2022-08-31T13:22:17.063Z,96043.28
2022-08-31T13:27:21.725Z,96025.03
2022-08-31T13:32:33.643Z,96025.81
2022-08-31T13:37:40.506Z,96039.31
2022-08-31T13:42:45.647Z,96036.41
2022-08-31T13:47:57.223Z,96026.72
2022-08-31T13:53:26.001Z,96015.25
2022-08-31T13:58:29.529Z,96018.84
2022-08-31T14:03:34.940Z,96020.28
2022-08-31T14:08:39.257Z,96022.66
2022-08-31T14:13:49.107Z,95996.63
2022-08-31T14:18:55.955Z,96006.66
2022-08-31T14:24:04.038Z,96011.63
2022-08-31T14:29:10.499Z,95997.53
2022-08-31T14:34:26.985Z,95993.03
2022-08-31T14:39:32.672Z,95981.09
2022-08-31T14:44:39.261Z,95975.97
2022-08-31T14:49:45.450Z,95987.16
2022-08-31T14:54:49.752Z,95980.53
2022-08-31T14:59:56.859Z,95992.13
2022-08-31T15:05:06.272Z,95984.09
2022-08-31T15:10:12.764Z,95977.69
2022-08-31T15:15:20.764Z,95976.41
2022-08-31T15:20:23.968Z,95972.06
2022-08-31T15:25:28.802Z,95974.78
2022-08-31T15:30:33.785Z,95981.50
2022-08-31T15:35:41.811Z,95981.25
2022-08-31T15:40:46.480Z,95976.09
2022-08-31T15:45:49.355Z,95971.78
2022-08-31T15:51:00.188Z,95972.34
2022-08-31T15:56:06.593Z,95969.72
2022-08-31T16:01:14.133Z,95965.97
2022-08-31T16:06:16.983Z,95970.28
2022-08-31T16:11:21.098Z,95959.53
2022-08-31T16:16:23.858Z,95970.03
2022-08-31T16:21:28.848Z,95971.31
2022-08-31T16:26:35.925Z,95980.03
2022-08-31T16:31:38.969Z,95988.28
2022-08-31T16:36:42.829Z,95995.47
2022-08-31T16:41:47.386Z,95973.59
2022-08-31T16:46:50.209Z,95977.13
2022-08-31T16:51:53.071Z,95982.72
2022-08-31T16:56:57.871Z,95983.16
2022-08-31T17:02:00.809Z,95992.91
2022-08-31T17:14:46.778Z,96001.41
2022-08-31T17:19:52.217Z,96011.53
2022-08-31T17:24:57.723Z,96010.34
2022-08-31T17:30:05.819Z,96018.28
2022-08-31T17:35:09.596Z,96014.56
2022-08-31T17:40:14.269Z,96011.81
2022-08-31T17:45:21.211Z,96030.66
2022-08-31T17:50:23.969Z,96034.66
2022-08-31T17:55:26.727Z,96039.69
2022-08-31T18:00:32.604Z,96027.78
2022-08-31T18:05:35.415Z,96039.50
2022-08-31T18:10:38.889Z,96042.25
2022-08-31T18:15:43.553Z,96050.16
2022-08-31T18:20:46.312Z,96043.72
2022-08-31T18:25:49.770Z,96047.84
2022-08-31T18:30:53.876Z,96044.09
2022-08-31T18:35:56.725Z,96048.94
2022-08-31T18:41:20.987Z,96046.38
2022-08-31T18:46:26.734Z,96054.91
2022-08-31T18:51:29.805Z,96064.13
2022-08-31T18:56:33.259Z,96062.81
2022-08-31T19:01:37.770Z,96064.53
2022-08-31T19:06:42.316Z,96067.63
2022-08-31T19:11:51.111Z,96054.88
2022-08-31T19:17:01.282Z,96067.16
2022-08-31T19:22:06.884Z,96072.66
2022-08-31T19:27:10.607Z,96080.81
2022-08-31T19:32:14.858Z,96078.78
2022-08-31T19:37:17.914Z,96084.97
2022-08-31T19:42:39.732Z,96092.53
2022-08-31T19:47:46.712Z,96090.47
2022-08-31T19:52:51.829Z,96090.69
2022-08-31T19:57:54.708Z,96082.78
2022-08-31T20:02:59.649Z,96091.78
2022-08-31T20:08:02.541Z,96098.28
2022-08-31T20:13:06.109Z,96090.97
2022-08-31T20:18:12.584Z,96088.09
2022-08-31T20:23:17.295Z,96093.41
2022-08-31T20:28:21.680Z,96093.00
2022-08-31T20:33:26.470Z,96096.50
2022-08-31T20:38:39.365Z,96092.66
2022-08-31T20:43:44.608Z,96088.19
2022-08-31T20:49:06.250Z,96087.38
2022-08-31T20:54:09.342Z,96088.63
2022-08-31T20:59:12.105Z,96091.47
2022-08-31T21:04:16.242Z,96096.78
2022-08-31T21:09:19.577Z,96092.28
2022-08-31T21:14:22.771Z,96091.06
2022-08-31T21:19:26.932Z,96100.44
2022-08-31T21:24:29.805Z,96098.00
2022-08-31T21:29:33.730Z,96101.44
2022-08-31T21:34:39.119Z,96092.25
2022-08-31T21:39:42.819Z,96090.44
2022-08-31T21:44:45.667Z,96087.38
2022-08-31T21:49:53.522Z,96095.69
2022-08-31T21:54:56.405Z,96093.44
2022-08-31T21:59:59.599Z,96086.47
2022-08-31T22:05:08.577Z,96082.00
2022-08-31T22:10:12.133Z,96093.34
2022-08-31T22:15:16.705Z,96088.47
2022-08-31T22:20:22.163Z,96090.91
2022-08-31T22:25:24.740Z,96088.03
2022-08-31T22:30:27.790Z,96087.59
2022-08-31T22:35:31.953Z,96085.09
2022-08-31T22:40:39.386Z,96079.88
2022-08-31T22:45:48.210Z,96074.50
2022-08-31T22:50:52.727Z,96080.34
2022-08-31T22:55:55.460Z,96086.44
2022-08-31T23:00:58.226Z,96085.16
2022-08-31T23:06:02.404Z,96083.06
2022-08-31T23:11:05.489Z,96083.41
2022-08-31T23:16:09.352Z,96077.75
2022-08-31T23:21:13.567Z,96073.88
2022-08-31T23:26:16.346Z,96069.25
2022-08-31T23:31:20.129Z,96068.41
2022-08-31T23:36:29.451Z,96062.66
2022-08-31T23:41:38.901Z,96060.88
2022-08-31T23:46:43.284Z,96052.19
2022-08-31T23:51:47.662Z,96050.16
2022-08-31T23:56:55.626Z,96055.63
